Time;durP1;ratioP1;P1;durP2;ratioP2;P2;SDS_P1;SDS_P2;PMS_P1;PMS_P2;Temp;Humidity;BMP_temperature;BMP_pressure;BME280_temperature;BME280_humidity;BME280_pressure;Samples;Min_cycle;Max_cycle;Signal;HPM_P1;HPM_P2
2022/11/26 00:01:08;;;;;;;11.75;5.38;;;8.00;99.90;;;;;;5053633;28;20377;-75
2022/11/26 00:03:34;;;;;;;10.30;5.32;;;8.10;99.90;;;;;;5054887;28;20116;-74
2022/11/26 00:06:01;;;;;;;9.18;5.18;;;8.10;99.90;;;;;;5054806;28;20525;-74
2022/11/26 00:08:32;;;;;;;7.40;4.63;;;8.10;99.90;;;;;;5054937;28;20446;-74
2022/11/26 00:10:58;;;;;;;8.93;5.22;;;8.10;99.90;;;;;;5054739;28;20021;-75
2022/11/26 00:13:27;;;;;;;8.95;5.20;;;8.00;99.90;;;;;;5054224;28;20373;-75
2022/11/26 00:15:54;;;;;;;8.45;4.60;;;8.10;99.90;;;;;;5053417;28;20075;-74
2022/11/26 00:18:22;;;;;;;8.10;5.47;;;8.00;99.90;;;;;;5054516;28;20021;-75
2022/11/26 00:20:51;;;;;;;10.15;5.25;;;8.00;99.90;;;;;;5054735;28;20033;-74
2022/11/26 00:23:23;;;;;;;8.82;5.22;;;8.10;99.90;;;;;;5053810;28;20037;-74
2022/11/26 00:25:55;;;;;;;8.38;5.28;;;8.10;99.90;;;;;;5053378;28;20438;-75
2022/11/26 00:28:33;;;;;;;10.27;5.32;;;8.10;99.90;;;;;;5054283;28;20040;-75
2022/11/26 00:31:01;;;;;;;11.27;5.78;;;8.00;99.90;;;;;;5054369;28;20033;-74
2022/11/26 00:33:28;;;;;;;8.82;4.90;;;8.00;99.90;;;;;;5053953;28;20458;-74
2022/11/26 00:35:58;;;;;;;11.35;5.60;;;8.00;99.90;;;;;;5054625;28;20049;-74
2022/11/26 00:38:24;;;;;;;9.05;5.90;;;8.00;99.90;;;;;;5054117;28;20041;-75
2022/11/26 00:40:50;;;;;;;10.63;5.95;;;8.00;99.90;;;;;;5054482;28;20029;-73
2022/11/26 00:43:16;;;;;;;10.45;5.97;;;8.00;99.90;;;;;;5054012;28;20350;-73
2022/11/26 00:45:43;;;;;;;11.80;6.25;;;8.00;99.90;;;;;;5054526;28;20412;-74
2022/11/26 00:48:08;;;;;;;11.85;6.20;;;8.00;99.90;;;;;;5053919;28;20366;-75
2022/11/26 00:50:40;;;;;;;11.65;5.93;;;8.00;99.90;;;;;;5054244;28;20032;-74
2022/11/26 00:53:10;;;;;;;11.55;6.07;;;8.00;99.90;;;;;;5053540;28;20056;-75
2022/11/26 00:55:39;;;;;;;8.30;5.65;;;8.00;99.90;;;;;;5053989;28;20482;-74
2022/11/26 00:58:06;;;;;;;14.45;7.20;;;7.90;99.90;;;;;;5053938;28;20090;-81
2022/11/26 01:00:33;;;;;;;11.13;6.43;;;7.90;99.90;;;;;;5054077;28;20036;-74
2022/11/26 01:03:00;;;;;;;11.38;6.05;;;7.90;99.90;;;;;;5053750;28;20025;-74
2022/11/26 01:05:32;;;;;;;8.15;5.55;;;7.80;99.90;;;;;;5053351;28;20426;-74
2022/11/26 01:08:18;;;;;;;9.52;5.70;;;7.80;99.90;;;;;;5054214;28;20033;-74
2022/11/26 01:10:43;;;;;;;9.75;5.95;;;7.80;99.90;;;;;;5053849;28;20104;-74
2022/11/26 01:13:10;;;;;;;8.35;5.82;;;7.80;99.90;;;;;;5053198;28;20056;-75
2022/11/26 01:15:35;;;;;;;10.55;6.68;;;7.80;99.90;;;;;;5053844;28;20060;-75
2022/11/26 01:18:01;;;;;;;13.00;6.90;;;7.80;99.90;;;;;;5052222;28;20509;-74
2022/11/26 01:20:29;;;;;;;8.98;6.00;;;7.80;99.90;;;;;;5053037;28;20021;-74
2022/11/26 01:22:57;;;;;;;13.38;6.85;;;7.90;99.90;;;;;;5053415;28;20029;-75
2022/11/26 01:25:24;;;;;;;9.75;6.30;;;7.80;99.90;;;;;;5052716;28;20096;-75
2022/11/26 01:27:51;;;;;;;12.70;6.97;;;7.80;99.90;;;;;;5053093;28;20041;-75
2022/11/26 01:30:23;;;;;;;11.40;6.72;;;7.70;99.90;;;;;;5052714;28;20479;-76
2022/11/26 01:32:50;;;;;;;12.65;7.20;;;7.70;99.90;;;;;;5051867;28;20025;-76
2022/11/26 01:35:18;;;;;;;12.27;7.60;;;7.60;99.90;;;;;;5051268;28;20048;-75
2022/11/26 01:37:45;;;;;;;12.93;7.47;;;7.60;99.90;;;;;;5053206;28;20036;-75
2022/11/26 01:40:26;;;;;;;12.35;7.75;;;7.60;99.90;;;;;;5052682;28;20028;-82
2022/11/26 01:42:57;;;;;;;11.00;7.75;;;7.60;99.90;;;;;;5053160;28;20044;-75
2022/11/26 01:45:23;;;;;;;12.07;7.93;;;7.60;99.90;;;;;;5052638;28;20029;-75
2022/11/26 01:47:49;;;;;;;13.52;7.90;;;7.60;99.90;;;;;;5053119;28;20032;-75
2022/11/26 01:50:27;;;;;;;12.57;8.10;;;7.60;99.90;;;;;;5052572;28;20025;-75
2022/11/26 01:53:13;;;;;;;13.38;8.93;;;7.50;99.90;;;;;;5052817;28;20071;-76
2022/11/26 01:55:46;;;;;;;15.43;8.27;;;7.50;99.90;;;;;;5051543;28;20029;-75
2022/11/26 01:58:16;;;;;;;12.35;7.93;;;7.60;99.90;;;;;;5052487;28;20044;-76
2022/11/26 02:00:42;;;;;;;14.75;9.10;;;7.50;99.90;;;;;;5052996;28;20029;-75
2022/11/26 02:03:09;;;;;;;15.45;9.15;;;7.50;99.90;;;;;;5052880;28;20047;-75
2022/11/26 02:05:58;;;;;;;14.93;8.95;;;7.50;99.90;;;;;;5052225;28;20029;-75
2022/11/26 02:08:27;;;;;;;15.50;9.30;;;7.50;99.90;;;;;;5052470;28;20061;-75
2022/11/26 02:10:52;;;;;;;14.20;9.57;;;7.50;99.90;;;;;;5052816;28;20085;-75
2022/11/26 02:13:18;;;;;;;14.85;9.50;;;7.50;99.90;;;;;;5052034;28;20028;-76
2022/11/26 02:16:10;;;;;;;16.42;10.40;;;7.50;99.90;;;;;;5051019;28;20025;-76
2022/11/26 02:18:41;;;;;;;16.80;10.05;;;7.50;99.90;;;;;;5051711;28;20516;-75
2022/11/26 02:21:19;;;;;;;15.02;10.30;;;7.50;99.90;;;;;;5052782;28;20043;-74
2022/11/26 02:24:03;;;;;;;14.75;10.38;;;7.50;99.90;;;;;;5052169;28;20028;-76
2022/11/26 02:26:56;;;;;;;18.40;11.82;;;7.50;99.90;;;;;;5052190;28;20050;-76
2022/11/26 02:29:29;;;;;;;18.58;11.05;;;7.50;99.90;;;;;;5051788;28;20075;-76
2022/11/26 02:32:04;;;;;;;15.68;10.82;;;7.50;99.90;;;;;;5052020;28;20369;-76
2022/11/26 02:34:46;;;;;;;16.38;11.48;;;7.50;99.90;;;;;;5051613;28;20398;-76
2022/11/26 02:37:15;;;;;;;17.17;11.63;;;7.50;99.90;;;;;;5052304;28;20043;-76
2022/11/26 02:39:41;;;;;;;18.75;11.38;;;7.40;99.90;;;;;;5052285;28;20071;-74
2022/11/26 02:42:39;;;;;;;16.85;11.82;;;7.40;99.90;;;;;;5052160;28;20052;-74
2022/11/26 02:45:12;;;;;;;16.23;11.80;;;7.50;99.90;;;;;;5039884;28;20068;-74
2022/11/26 02:47:41;;;;;;;17.98;11.65;;;7.50;99.90;;;;;;5051571;28;20029;-74
2022/11/26 02:50:14;;;;;;;17.50;11.77;;;7.50;99.90;;;;;;5052279;28;20052;-74
2022/11/26 02:52:42;;;;;;;17.95;12.45;;;7.50;99.90;;;;;;5051970;28;20021;-74
2022/11/26 02:55:11;;;;;;;19.55;12.65;;;7.60;99.90;;;;;;5052471;28;20028;-75
2022/11/26 02:57:44;;;;;;;19.05;11.70;;;7.50;99.90;;;;;;5051757;28;20048;-75
2022/11/26 03:00:10;;;;;;;16.10;11.63;;;7.50;99.90;;;;;;5052288;28;20041;-75
2022/11/26 03:02:53;;;;;;;18.65;12.10;;;7.50;99.90;;;;;;5051595;28;20361;-75
2022/11/26 03:05:19;;;;;;;15.23;11.18;;;7.60;99.90;;;;;;5051886;28;20021;-75
2022/11/26 03:07:48;;;;;;;16.80;11.45;;;7.60;99.90;;;;;;5052146;28;20044;-75
2022/11/26 03:10:14;;;;;;;17.02;11.98;;;7.60;99.90;;;;;;5052067;28;20021;-75
2022/11/26 03:12:40;;;;;;;18.65;11.90;;;7.60;99.90;;;;;;5051656;28;20509;-75
2022/11/26 03:15:06;;;;;;;18.30;11.65;;;7.60;99.90;;;;;;5051890;28;20159;-75
2022/11/26 03:17:32;;;;;;;16.50;11.95;;;7.70;99.90;;;;;;5051358;28;20071;-75
2022/11/26 03:19:58;;;;;;;16.77;11.50;;;7.70;99.90;;;;;;5051848;28;20103;-76
2022/11/26 03:22:23;;;;;;;21.25;11.70;;;7.70;99.90;;;;;;5051128;28;20021;-75
2022/11/26 03:24:49;;;;;;;16.25;11.30;;;7.70;99.90;;;;;;5050544;28;20109;-75
2022/11/26 03:27:15;;;;;;;15.43;10.77;;;7.70;99.90;;;;;;5051924;28;20355;-75
2022/11/26 03:29:40;;;;;;;17.08;11.35;;;7.70;99.90;;;;;;5051095;28;20472;-76
2022/11/26 03:32:06;;;;;;;20.15;11.25;;;7.70;99.90;;;;;;5051874;28;20036;-75
2022/11/26 03:34:32;;;;;;;17.02;11.68;;;7.80;99.90;;;;;;5051682;28;20083;-76
2022/11/26 03:36:57;;;;;;;16.02;11.18;;;7.80;99.90;;;;;;5055457;28;20071;-75
2022/11/26 03:39:23;;;;;;;14.75;11.10;;;7.80;99.90;;;;;;5054644;28;20033;-76
2022/11/26 03:41:49;;;;;;;16.60;11.23;;;7.80;99.90;;;;;;5055498;28;20075;-76
2022/11/26 03:44:14;;;;;;;18.90;10.65;;;7.80;99.90;;;;;;5055507;28;20025;-76
2022/11/26 03:46:40;;;;;;;17.05;11.27;;;7.80;99.90;;;;;;5055448;28;20047;-76
2022/11/26 03:49:06;;;;;;;15.55;11.68;;;7.80;99.90;;;;;;5055162;28;20053;-76
2022/11/26 03:51:32;;;;;;;14.57;10.82;;;7.80;99.90;;;;;;5055311;28;20107;-76
2022/11/26 03:53:57;;;;;;;16.73;11.63;;;7.90;99.90;;;;;;5055428;28;20033;-76
2022/11/26 03:56:23;;;;;;;17.77;11.77;;;7.80;99.90;;;;;;5054581;28;20028;-76
2022/11/26 03:58:48;;;;;;;19.42;11.63;;;7.80;99.90;;;;;;5054029;28;20112;-76
2022/11/26 04:01:14;;;;;;;14.75;10.90;;;7.80;99.90;;;;;;5053446;28;20142;-76
2022/11/26 04:03:40;;;;;;;16.55;11.52;;;7.80;99.90;;;;;;5054747;28;20032;-76
2022/11/26 04:06:06;;;;;;;19.02;11.80;;;7.80;99.90;;;;;;5055152;28;20032;-75
2022/11/26 04:08:32;;;;;;;15.93;12.27;;;7.80;99.90;;;;;;5054784;28;20374;-76
2022/11/26 04:10:58;;;;;;;21.88;12.07;;;7.80;99.90;;;;;;5055213;28;20025;-76
2022/11/26 04:13:23;;;;;;;16.10;11.50;;;7.80;99.90;;;;;;5053399;28;20029;-76
2022/11/26 04:15:49;;;;;;;15.77;11.88;;;7.80;99.90;;;;;;5054447;28;20032;-76
2022/11/26 04:18:15;;;;;;;20.77;12.60;;;7.80;99.90;;;;;;5054896;28;20029;-75
2022/11/26 04:20:41;;;;;;;17.05;12.77;;;7.80;99.90;;;;;;5054524;28;20033;-76
2022/11/26 04:23:06;;;;;;;16.75;12.82;;;7.80;99.90;;;;;;5051318;28;20143;-76
2022/11/26 04:25:32;;;;;;;17.02;12.23;;;7.80;99.90;;;;;;5054007;28;20029;-76
2022/11/26 04:27:58;;;;;;;16.15;12.07;;;7.80;99.90;;;;;;5054563;28;20035;-76
2022/11/26 04:30:24;;;;;;;15.13;11.27;;;7.80;99.90;;;;;;5054303;28;20029;-79
2022/11/26 04:32:49;;;;;;;17.02;11.63;;;7.80;99.90;;;;;;5054295;28;20108;-76
2022/11/26 04:35:15;;;;;;;17.75;11.60;;;7.80;99.90;;;;;;5054493;28;20052;-76
2022/11/26 04:37:41;;;;;;;17.65;11.75;;;7.80;99.90;;;;;;5054260;28;20098;-76
2022/11/26 04:40:07;;;;;;;16.92;11.73;;;7.80;99.90;;;;;;5054514;28;20033;-78
2022/11/26 04:42:33;;;;;;;17.75;11.48;;;7.80;99.90;;;;;;5053748;28;20037;-77
2022/11/26 04:44:58;;;;;;;14.15;10.48;;;7.80;99.90;;;;;;5054273;28;20118;-76
2022/11/26 04:47:24;;;;;;;16.08;11.43;;;7.90;99.90;;;;;;5054066;28;20055;-76
2022/11/26 04:49:50;;;;;;;14.60;10.60;;;7.90;99.90;;;;;;5053568;28;20112;-76
2022/11/26 04:52:15;;;;;;;16.05;11.13;;;7.90;99.90;;;;;;5053108;28;20025;-77
2022/11/26 04:54:41;;;;;;;15.60;11.48;;;7.80;99.90;;;;;;5053540;28;20029;-76
2022/11/26 04:57:07;;;;;;;16.40;11.35;;;7.90;99.90;;;;;;5053841;28;20031;-76
2022/11/26 04:59:32;;;;;;;17.40;11.38;;;7.80;99.90;;;;;;5053540;28;20025;-76
2022/11/26 05:01:58;;;;;;;20.08;10.52;;;7.80;99.90;;;;;;5054040;28;20351;-75
2022/11/26 05:04:25;;;;;;;19.00;11.50;;;7.90;99.90;;;;;;5054065;28;20132;-75
2022/11/26 05:06:51;;;;;;;16.73;11.45;;;7.90;99.90;;;;;;5052292;28;20033;-77
2022/11/26 05:09:17;;;;;;;17.00;11.13;;;7.90;99.90;;;;;;5053648;28;20116;-76
2022/11/26 05:11:42;;;;;;;17.30;11.52;;;7.90;99.90;;;;;;5053612;28;20370;-77
2022/11/26 05:14:08;;;;;;;15.90;11.57;;;7.90;99.90;;;;;;5054137;28;20029;-74
2022/11/26 05:16:33;;;;;;;18.50;11.98;;;7.90;99.90;;;;;;5052007;28;20043;-77
2022/11/26 05:18:59;;;;;;;17.67;11.43;;;7.80;99.90;;;;;;5052405;28;20054;-77
2022/11/26 05:21:25;;;;;;;19.85;12.93;;;7.80;99.90;;;;;;5053743;28;20064;-76
2022/11/26 05:23:50;;;;;;;19.38;12.13;;;7.80;99.90;;;;;;5053266;28;20116;-75
2022/11/26 05:26:16;;;;;;;20.73;12.57;;;7.80;99.90;;;;;;5053386;28;20446;-76
2022/11/26 05:28:41;;;;;;;18.40;11.85;;;7.80;99.90;;;;;;5052860;28;20115;-76
2022/11/26 05:31:07;;;;;;;17.45;11.60;;;7.80;99.90;;;;;;5053672;28;20021;-76
2022/11/26 05:33:33;;;;;;;18.90;11.73;;;7.80;99.90;;;;;;5053018;28;20055;-76
2022/11/26 05:35:59;;;;;;;19.60;12.07;;;7.80;99.90;;;;;;5053342;28;20049;-76
2022/11/26 05:38:25;;;;;;;18.10;11.90;;;7.80;99.90;;;;;;5053497;28;20035;-75
2022/11/26 05:40:50;;;;;;;15.15;10.80;;;7.80;99.90;;;;;;5052947;28;20151;-75
2022/11/26 05:43:16;;;;;;;17.33;10.70;;;7.80;99.90;;;;;;5052914;28;20112;-75
2022/11/26 05:45:42;;;;;;;18.65;12.38;;;7.80;99.90;;;;;;5052579;28;20096;-76
2022/11/26 05:48:08;;;;;;;17.15;11.32;;;7.80;99.90;;;;;;5053150;28;20482;-75
2022/11/26 05:50:33;;;;;;;18.52;10.82;;;7.90;99.90;;;;;;5052644;28;20021;-76
2022/11/26 05:52:59;;;;;;;18.05;11.32;;;7.90;99.90;;;;;;5053235;28;20025;-75
2022/11/26 05:55:25;;;;;;;18.60;11.63;;;7.90;99.90;;;;;;5052797;28;20029;-75
2022/11/26 05:57:51;;;;;;;16.60;11.38;;;7.90;99.90;;;;;;5051426;28;20044;-76
2022/11/26 06:00:17;;;;;;;14.98;10.93;;;7.90;99.90;;;;;;5053313;28;20040;-76
2022/11/26 06:02:43;;;;;;;18.63;10.95;;;7.90;99.90;;;;;;5052359;28;20021;-76
2022/11/26 06:05:08;;;;;;;15.98;11.82;;;7.90;99.90;;;;;;5052636;28;20508;-75
2022/11/26 06:07:34;;;;;;;16.20;11.48;;;7.90;99.90;;;;;;5052429;28;20432;-76
2022/11/26 06:10:00;;;;;;;14.95;10.80;;;7.90;99.90;;;;;;5052905;28;20028;-76
2022/11/26 06:12:26;;;;;;;16.02;11.45;;;7.90;99.90;;;;;;5052864;28;20052;-75
2022/11/26 06:14:51;;;;;;;14.73;10.35;;;7.90;99.90;;;;;;5052407;28;20063;-76
2022/11/26 06:17:17;;;;;;;17.42;11.90;;;8.00;99.90;;;;;;5052619;28;20033;-75
2022/11/26 06:19:42;;;;;;;14.50;10.50;;;8.00;99.90;;;;;;5052358;28;20055;-76
2022/11/26 06:22:08;;;;;;;16.23;11.55;;;8.00;99.90;;;;;;5052170;28;20025;-74
2022/11/26 06:24:34;;;;;;;16.00;11.23;;;8.00;99.90;;;;;;5052498;28;20025;-77
2022/11/26 06:27:00;;;;;;;17.92;11.88;;;7.90;99.90;;;;;;5052449;28;20393;-76
2022/11/26 06:29:25;;;;;;;14.98;11.18;;;8.00;99.90;;;;;;5051163;28;20033;-76
2022/11/26 06:31:51;;;;;;;17.25;12.10;;;8.00;99.90;;;;;;5051986;28;20108;-77
2022/11/26 06:34:16;;;;;;;17.25;11.70;;;8.00;99.90;;;;;;5052388;28;20483;-76
2022/11/26 06:36:42;;;;;;;18.48;11.75;;;8.00;99.90;;;;;;5051485;28;20171;-76
2022/11/26 06:39:09;;;;;;;17.98;12.65;;;8.00;99.90;;;;;;5052111;28;20426;-77
2022/11/26 06:41:35;;;;;;;17.65;12.85;;;8.00;99.90;;;;;;5052103;28;20055;-81
2022/11/26 06:44:00;;;;;;;16.92;12.20;;;8.00;99.90;;;;;;5052479;28;20507;-76
2022/11/26 06:46:26;;;;;;;17.73;11.88;;;8.00;99.90;;;;;;5052414;28;20087;-74
2022/11/26 06:48:52;;;;;;;15.00;11.55;;;8.00;99.90;;;;;;5052135;28;20025;-74
2022/11/26 06:51:21;;;;;;;22.70;13.23;;;8.00;99.90;;;;;;5052361;28;20025;-77
2022/11/26 06:53:47;;;;;;;18.52;12.60;;;8.00;99.90;;;;;;5051653;28;20101;-77
2022/11/26 06:56:14;;;;;;;17.98;12.95;;;8.00;99.90;;;;;;5050897;28;20132;-75
2022/11/26 06:58:40;;;;;;;19.55;13.40;;;8.00;99.90;;;;;;5051806;28;20077;-77
2022/11/26 07:01:11;;;;;;;20.92;13.15;;;8.10;99.90;;;;;;5051993;28;20067;-75
2022/11/26 07:03:37;;;;;;;16.58;12.40;;;8.10;99.90;;;;;;5051986;28;20025;-79
2022/11/26 07:06:03;;;;;;;19.08;12.48;;;8.10;99.90;;;;;;5052387;28;20381;-76
2022/11/26 07:08:29;;;;;;;17.52;12.30;;;8.10;99.90;;;;;;5052712;28;20026;-76
2022/11/26 07:10:55;;;;;;;19.77;12.45;;;8.10;99.90;;;;;;5055735;28;20068;-76
2022/11/26 07:13:20;;;;;;;23.60;12.65;;;8.10;99.90;;;;;;5055963;28;20036;-74
2022/11/26 07:15:46;;;;;;;19.00;13.25;;;8.10;99.90;;;;;;5055630;28;20170;-75
2022/11/26 07:18:12;;;;;;;21.00;12.80;;;8.10;99.90;;;;;;5055925;28;20450;-75
2022/11/26 07:20:37;;;;;;;19.67;11.85;;;8.20;99.90;;;;;;5055868;28;20112;-80
2022/11/26 07:23:03;;;;;;;21.05;13.10;;;8.20;99.90;;;;;;5055530;28;20449;-76
2022/11/26 07:25:30;;;;;;;18.40;12.32;;;8.20;99.90;;;;;;5055610;28;20462;-76
2022/11/26 07:27:56;;;;;;;19.88;13.25;;;8.20;99.90;;;;;;5054652;28;20115;-76
2022/11/26 07:30:22;;;;;;;26.58;13.23;;;8.20;99.90;;;;;;5055291;28;20040;-76
2022/11/26 07:32:48;;;;;;;22.55;13.88;;;8.20;99.90;;;;;;5055536;28;20029;-77
2022/11/26 07:35:13;;;;;;;19.92;12.52;;;8.30;99.90;;;;;;5055200;28;20051;-77
2022/11/26 07:37:39;;;;;;;20.45;13.23;;;8.30;99.90;;;;;;5054862;28;20029;-80
2022/11/26 07:40:06;;;;;;;20.13;12.77;;;8.30;99.90;;;;;;5055530;28;20024;-77
2022/11/26 07:42:32;;;;;;;24.73;14.05;;;8.30;99.90;;;;;;5055613;28;20382;-77
2022/11/26 07:44:58;;;;;;;20.92;13.60;;;8.30;99.90;;;;;;5055279;28;20373;-76
2022/11/26 07:47:24;;;;;;;17.70;13.80;;;8.30;99.90;;;;;;5054035;28;20029;-76
2022/11/26 07:49:50;;;;;;;22.50;14.45;;;8.20;99.90;;;;;;5055192;28;20059;-77
2022/11/26 07:52:16;;;;;;;20.55;14.15;;;8.30;99.90;;;;;;5054971;28;20110;-76
2022/11/26 07:54:41;;;;;;;21.48;13.93;;;8.30;99.90;;;;;;5053035;28;20029;-78
2022/11/26 07:57:07;;;;;;;24.13;14.50;;;8.20;99.90;;;;;;5054919;28;20592;-77
2022/11/26 07:59:33;;;;;;;19.95;14.63;;;8.20;99.90;;;;;;5055058;28;20023;-77
2022/11/26 08:01:58;;;;;;;24.98;15.70;;;8.20;99.90;;;;;;5053464;28;20025;-78
2022/11/26 08:04:24;;;;;;;22.25;15.50;;;8.20;99.90;;;;;;5054910;28;20373;-77
2022/11/26 08:06:50;;;;;;;23.77;15.00;;;8.20;99.90;;;;;;5054575;28;20422;-76
2022/11/26 08:09:16;;;;;;;25.40;15.88;;;8.20;99.90;;;;;;5054688;28;20032;-76
2022/11/26 08:11:41;;;;;;;22.95;15.32;;;8.20;99.90;;;;;;5054632;28;20025;-77
2022/11/26 08:14:10;;;;;;;25.10;16.35;;;8.20;99.90;;;;;;5054929;28;20032;-77
2022/11/26 08:16:36;;;;;;;21.42;15.15;;;8.20;99.90;;;;;;5054786;28;20543;-75
2022/11/26 08:19:05;;;;;;;24.42;14.93;;;8.20;99.90;;;;;;5054458;28;20037;-77
2022/11/26 08:21:31;;;;;;;22.30;14.48;;;8.20;99.90;;;;;;5053878;28;20108;-76
2022/11/26 08:23:57;;;;;;;20.52;14.10;;;8.30;99.90;;;;;;5054101;28;20067;-76
2022/11/26 08:26:24;;;;;;;20.15;13.70;;;8.30;99.90;;;;;;5053144;28;20033;-76
2022/11/26 08:28:50;;;;;;;18.35;12.82;;;8.30;99.90;;;;;;5053319;28;20079;-76
2022/11/26 08:31:16;;;;;;;19.60;13.60;;;8.30;99.90;;;;;;5053872;28;20025;-75
2022/11/26 08:33:42;;;;;;;18.92;12.75;;;8.30;99.90;;;;;;5054133;28;20387;-75
2022/11/26 08:36:09;;;;;;;15.65;12.05;;;8.30;99.90;;;;;;5053662;28;20470;-75
2022/11/26 08:38:35;;;;;;;19.13;12.93;;;8.30;99.90;;;;;;5053777;28;20033;-75
2022/11/26 08:41:03;;;;;;;18.60;12.43;;;8.40;99.90;;;;;;5053451;28;20366;-76
2022/11/26 08:43:29;;;;;;;20.88;11.55;;;8.40;99.90;;;;;;5050066;28;20465;-75
2022/11/26 08:45:57;;;;;;;17.88;11.13;;;8.50;99.90;;;;;;5054185;28;20040;-75
2022/11/26 08:48:23;;;;;;;21.88;11.77;;;8.50;99.90;;;;;;5053139;28;20055;-75
2022/11/26 08:50:49;;;;;;;18.98;10.32;;;8.50;99.90;;;;;;5053802;28;20033;-74
2022/11/26 08:53:15;;;;;;;17.33;10.02;;;8.60;99.90;;;;;;5054397;28;20043;-75
2022/11/26 08:55:41;;;;;;;15.20;9.40;;;8.60;99.90;;;;;;5054164;28;20103;-75
2022/11/26 08:58:07;;;;;;;13.27;8.55;;;8.70;99.90;;;;;;5053660;28;20104;-75
2022/11/26 09:00:33;;;;;;;14.07;8.20;;;8.70;99.90;;;;;;5053598;28;20074;-75
2022/11/26 09:02:59;;;;;;;14.70;8.40;;;8.80;99.90;;;;;;5051232;28;20028;-75
2022/11/26 09:05:25;;;;;;;10.38;7.75;;;8.90;99.90;;;;;;5053388;28;20032;-74
2022/11/26 09:07:51;;;;;;;11.40;7.60;;;9.00;99.90;;;;;;5053292;28;20036;-76
2022/11/26 09:10:16;;;;;;;12.25;6.65;;;9.10;99.90;;;;;;5053599;28;20068;-72
2022/11/26 09:12:42;;;;;;;12.18;6.07;;;9.10;99.90;;;;;;5053655;28;20405;-75
2022/11/26 09:15:08;;;;;;;10.23;5.40;;;9.20;99.90;;;;;;5052865;28;20056;-76
2022/11/26 09:17:34;;;;;;;9.68;5.38;;;9.20;99.90;;;;;;5052719;28;20036;-76
2022/11/26 09:20:00;;;;;;;9.43;5.72;;;9.30;99.90;;;;;;5052397;28;20033;-76
2022/11/26 09:22:25;;;;;;;8.50;5.63;;;9.30;99.90;;;;;;5053241;28;20481;-76
2022/11/26 09:24:51;;;;;;;8.80;5.75;;;9.40;99.90;;;;;;5052817;28;20500;-75
2022/11/26 09:27:17;;;;;;;7.20;4.82;;;9.40;99.90;;;;;;5052768;28;20501;-75
2022/11/26 09:29:42;;;;;;;12.00;5.05;;;9.50;99.90;;;;;;5053097;28;20037;-77
2022/11/26 09:32:08;;;;;;;11.00;5.75;;;9.50;99.90;;;;;;5052738;28;20063;-75
2022/11/26 09:34:35;;;;;;;11.32;5.40;;;9.50;99.90;;;;;;5052318;28;20116;-75
2022/11/26 09:37:01;;;;;;;13.55;5.13;;;9.50;99.90;;;;;;5052349;28;20108;-75
2022/11/26 09:39:26;;;;;;;8.00;5.10;;;9.50;99.90;;;;;;5052856;28;20024;-75
2022/11/26 09:42:37;;;;;;;13.48;5.65;;;9.50;99.90;;;;;;5052292;28;20021;-75
2022/11/26 09:45:07;;;;;;;12.50;6.28;;;9.50;99.90;;;;;;5049141;28;20060;-75
2022/11/26 09:47:46;;;;;;;9.18;5.25;;;9.50;99.90;;;;;;5052399;28;20033;-75
2022/11/26 09:50:12;;;;;;;10.18;5.88;;;9.50;99.90;;;;;;5052470;28;20031;-75
2022/11/26 09:52:56;;;;;;;12.02;5.57;;;9.50;99.90;;;;;;5053001;28;20025;-75
2022/11/26 09:55:25;;;;;;;9.75;4.85;;;9.50;99.90;;;;;;5052815;28;20024;-76
2022/11/26 09:58:15;;;;;;;10.25;5.05;;;9.50;99.90;;;;;;5052446;28;20029;-74
2022/11/26 10:00:47;;;;;;;14.20;5.13;;;9.50;99.90;;;;;;5052824;28;20029;-75
2022/11/26 10:03:28;;;;;;;11.73;5.72;;;9.50;99.90;;;;;;5052186;28;20017;-74
2022/11/26 10:06:02;;;;;;;10.07;5.07;;;9.50;99.90;;;;;;5052479;28;20105;-76
2022/11/26 10:09:04;;;;;;;10.60;4.70;;;9.50;99.90;;;;;;5051492;28;20028;-76
2022/11/26 10:11:36;;;;;;;12.95;4.90;;;9.50;99.90;;;;;;5027315;28;20080;-78
2022/11/26 10:14:31;;;;;;;9.88;5.38;;;9.60;99.90;;;;;;5047853;28;20044;-75
2022/11/26 10:17:11;;;;;;;9.13;4.85;;;9.70;99.90;;;;;;5050404;28;20541;-76
2022/11/26 10:20:06;;;;;;;9.35;4.97;;;9.70;99.90;;;;;;5052099;28;20044;-75
2022/11/26 10:22:44;;;;;;;9.50;5.43;;;9.70;99.90;;;;;;5054383;28;20061;-76
2022/11/26 10:25:19;;;;;;;10.52;5.22;;;9.70;99.90;;;;;;5057753;28;20288;-76
2022/11/26 10:27:46;;;;;;;8.27;4.57;;;9.70;99.90;;;;;;5052505;28;20051;-75
2022/11/26 10:30:22;;;;;;;11.05;6.03;;;9.70;99.90;;;;;;5051386;28;20048;-75
2022/11/26 10:32:50;;;;;;;8.85;5.15;;;9.80;99.90;;;;;;5047072;28;20440;-73
2022/11/26 10:35:20;;;;;;;9.55;5.15;;;9.80;99.90;;;;;;5051681;28;20128;-73
2022/11/26 10:37:46;;;;;;;8.65;5.35;;;9.80;99.90;;;;;;5051369;28;20480;-74
2022/11/26 10:40:31;;;;;;;10.35;5.60;;;9.80;99.90;;;;;;5051106;28;20033;-73
2022/11/26 10:43:11;;;;;;;9.77;5.38;;;9.90;99.90;;;;;;5049971;28;20037;-73
2022/11/26 10:46:03;;;;;;;7.78;5.32;;;9.90;99.90;;;;;;5052311;28;20018;-73
2022/11/26 10:48:35;;;;;;;7.95;5.18;;;9.90;99.90;;;;;;5051835;28;20068;-78
2022/11/26 10:51:05;;;;;;;9.98;5.50;;;9.90;99.90;;;;;;5052156;28;20112;-76
2022/11/26 10:53:45;;;;;;;9.70;5.30;;;9.90;99.90;;;;;;5052591;28;20444;-75
2022/11/26 10:56:17;;;;;;;10.93;5.30;;;10.00;99.90;;;;;;5051889;28;20331;-76
2022/11/26 10:58:44;;;;;;;8.15;5.05;;;10.00;99.90;;;;;;5052491;28;20029;-76
2022/11/26 11:01:14;;;;;;;12.60;5.68;;;10.00;99.90;;;;;;5052102;28;20454;-77
2022/11/26 11:03:47;;;;;;;10.07;4.93;;;10.10;99.90;;;;;;5052602;28;20029;-78
2022/11/26 11:06:19;;;;;;;8.27;5.30;;;10.10;99.90;;;;;;5051778;28;20017;-78
2022/11/26 11:08:47;;;;;;;7.60;4.88;;;10.10;99.90;;;;;;5047349;28;20082;-78
2022/11/26 11:11:33;;;;;;;6.78;4.63;;;10.10;99.90;;;;;;5045744;28;20025;-78
2022/11/26 11:13:59;;;;;;;8.35;4.50;;;10.10;99.90;;;;;;5051882;28;20443;-77
2022/11/26 11:16:29;;;;;;;9.30;4.90;;;10.10;99.90;;;;;;5052345;28;20033;-76
2022/11/26 11:19:01;;;;;;;7.20;4.03;;;10.10;99.90;;;;;;5051439;28;20039;-78
2022/11/26 11:21:33;;;;;;;8.02;4.82;;;10.10;99.90;;;;;;5052003;28;20044;-78
2022/11/26 11:24:14;;;;;;;9.60;5.18;;;10.10;99.90;;;;;;5051799;28;20465;-77
2022/11/26 11:26:43;;;;;;;8.05;5.00;;;10.10;99.90;;;;;;5051887;28;20375;-77
2022/11/26 11:29:33;;;;;;;10.55;5.18;;;10.10;99.90;;;;;;5050196;28;20017;-78
2022/11/26 11:32:03;;;;;;;7.25;4.57;;;10.20;99.90;;;;;;5044998;28;20094;-77
2022/11/26 11:34:30;;;;;;;8.80;4.90;;;10.10;99.90;;;;;;5051108;28;20175;-77
2022/11/26 11:37:02;;;;;;;10.05;4.68;;;10.10;99.90;;;;;;5051597;28;20082;-87
2022/11/26 11:39:36;;;;;;;7.13;4.82;;;10.10;99.90;;;;;;5052001;28;20047;-76
2022/11/26 11:42:06;;;;;;;8.35;4.90;;;10.10;99.90;;;;;;5051598;28;20032;-75
2022/11/26 11:44:45;;;;;;;8.10;5.43;;;10.10;99.90;;;;;;5051900;28;20033;-81
2022/11/26 11:47:34;;;;;;;7.70;4.72;;;10.10;99.90;;;;;;5049985;28;20029;-76
2022/11/26 11:50:14;;;;;;;9.38;5.20;;;10.20;99.90;;;;;;5051246;28;20021;-77
2022/11/26 11:53:01;;;;;;;15.88;5.38;;;10.10;99.90;;;;;;5050339;28;20025;-77
2022/11/26 11:55:48;;;;;;;9.05;5.13;;;10.10;99.90;;;;;;5050777;28;20369;-78
2022/11/26 11:58:39;;;;;;;7.95;5.28;;;10.10;99.90;;;;;;5054912;28;20465;-75
2022/11/26 12:01:14;;;;;;;10.80;5.13;;;10.00;99.90;;;;;;5054718;28;20036;-78
2022/11/26 12:03:46;;;;;;;10.48;6.00;;;10.00;99.90;;;;;;5054220;28;20379;-78
2022/11/26 12:06:29;;;;;;;10.35;5.18;;;10.00;99.90;;;;;;5053650;28;20029;-78
2022/11/26 12:09:14;;;;;;;7.05;4.53;;;10.00;99.90;;;;;;5052261;28;20021;-78
2022/11/26 12:11:53;;;;;;;11.25;5.28;;;10.10;99.90;;;;;;5050212;28;20104;-77
2022/11/26 12:14:26;;;;;;;8.65;4.60;;;10.10;99.90;;;;;;5054200;28;20029;-77
2022/11/26 12:17:05;;;;;;;6.60;4.43;;;10.10;99.90;;;;;;5068328;28;20036;-77
2022/11/26 12:19:49;;;;;;;9.93;5.28;;;10.20;99.90;;;;;;5057898;28;20072;-79
2022/11/26 12:22:22;;;;;;;5.72;4.32;;;10.20;99.90;;;;;;5065707;28;20032;-77
2022/11/26 12:25:06;;;;;;;7.85;5.13;;;10.10;99.90;;;;;;5053440;28;20025;-77
2022/11/26 12:28:03;;;;;;;9.13;5.00;;;10.10;99.90;;;;;;5056769;28;20029;-78
2022/11/26 12:30:47;;;;;;;9.45;5.40;;;10.10;99.90;;;;;;5066114;28;20469;-78
2022/11/26 12:33:24;;;;;;;7.93;4.72;;;10.20;99.90;;;;;;5053407;28;20032;-78
2022/11/26 12:35:57;;;;;;;6.57;4.78;;;10.30;99.90;;;;;;5053411;28;20049;-77
2022/11/26 12:38:30;;;;;;;11.23;5.15;;;10.40;99.90;;;;;;5059927;28;20175;-78
2022/11/26 12:41:05;;;;;;;8.57;4.95;;;10.40;99.90;;;;;;5067385;28;20029;-78
2022/11/26 12:43:55;;;;;;;8.75;4.88;;;10.40;99.90;;;;;;5074027;28;20070;-77
2022/11/26 12:46:39;;;;;;;11.82;5.32;;;10.40;99.90;;;;;;5073319;28;20070;-79
2022/11/26 12:49:17;;;;;;;9.20;4.78;;;10.40;99.90;;;;;;5056327;28;20029;-77
2022/11/26 12:52:02;;;;;;;8.18;5.10;;;10.40;99.90;;;;;;5054159;28;20091;-77
2022/11/26 12:54:41;;;;;;;8.27;5.50;;;10.30;99.90;;;;;;5049650;28;20389;-77
2022/11/26 12:57:19;;;;;;;8.55;4.93;;;10.30;99.90;;;;;;5053509;28;20091;-78